Time;durP1;ratioP1;P1;durP2;ratioP2;P2;SDS_P1;SDS_P2;PMS_P1;PMS_P2;Temp;Humidity;BMP_temperature;BMP_pressure;BME280_temperature;BME280_humidity;BME280_pressure;Samples;Min_cycle;Max_cycle;Signal;HPM_P1;HPM_P2
2022/09/11 00:01:36;;;;;;;;;12.25;8.00;;;;;16.08;77.93;101688.25;5061619;28;45744;-91
2022/09/11 00:04:02;;;;;;;;;14.00;12.50;;;;;16.05;78.21;101692.69;5061854;28;45305;-91
2022/09/11 00:06:27;;;;;;;;;13.50;11.00;;;;;16.04;78.28;101690.97;5079525;28;45280;-91
2022/09/11 00:08:59;;;;;;;;;12.00;11.00;;;;;16.01;78.51;101685.84;5061351;28;47213;-91
2022/09/11 00:11:25;;;;;;;;;10.25;10.25;;;;;16.00;78.38;101678.03;5062282;28;45837;-92
2022/09/11 00:13:53;;;;;;;;;12.50;11.75;;;;;15.98;78.64;101683.34;5061455;28;45332;-91
2022/09/11 00:16:27;;;;;;;;;11.50;10.00;;;;;16.02;78.77;101684.09;5061815;28;45547;-93
2022/09/11 00:18:54;;;;;;;;;10.50;10.25;;;;;16.03;78.50;101685.81;5079462;28;46238;-92
2022/09/11 00:21:19;;;;;;;;;14.25;9.75;;;;;16.06;78.63;101681.31;5044519;28;45900;-91
2022/09/11 00:23:48;;;;;;;;;11.75;10.00;;;;;16.08;78.39;101683.84;5044703;28;45911;-91
2022/09/11 00:26:17;;;;;;;;;15.25;11.00;;;;;16.07;78.11;101682.16;5061929;28;45421;-92
2022/09/11 00:28:44;;;;;;;;;10.00;7.00;;;;;16.04;77.87;101680.47;5061453;28;46348;-92
2022/09/11 00:31:14;;;;;;;;;8.75;6.25;;;;;16.02;77.89;101671.78;5079357;28;45685;-91
2022/09/11 00:33:40;;;;;;;;;11.25;9.50;;;;;15.99;77.68;101671.94;5079134;28;45334;-90
2022/09/11 00:36:11;;;;;;;;;10.75;8.75;;;;;15.94;77.79;101675.63;5061353;28;45341;-92
2022/09/11 00:38:37;;;;;;;;;10.00;7.75;;;;;15.89;77.69;101675.78;5078811;28;45505;-90
2022/09/11 00:41:07;;;;;;;;;9.75;8.75;;;;;15.86;77.86;101674.16;5061084;28;45396;-92
2022/09/11 00:43:52;;;;;;;;;9.50;8.25;;;;;15.86;78.35;101676.78;5061347;28;45479;-91
2022/09/11 00:46:18;;;;;;;;;8.50;6.50;;;;;15.88;78.37;101663.59;5061260;28;45491;-90
2022/09/11 00:48:48;;;;;;;;;12.75;11.00;;;;;15.92;78.55;101673.06;5044121;28;46911;-91
2022/09/11 00:51:16;;;;;;;;;9.75;9.00;;;;;15.93;78.17;101669.50;5061308;28;45270;-91
2022/09/11 00:53:42;;;;;;;;;10.75;9.50;;;;;15.89;77.89;101670.53;5043552;28;45335;-89
2022/09/11 00:56:09;;;;;;;;;12.50;10.50;;;;;15.85;77.71;101663.69;5059682;28;67074;-91
2022/09/11 00:58:37;;;;;;;;;11.50;8.00;;;;;15.82;77.94;101663.78;5043963;28;49303;-93
2022/09/11 01:01:02;;;;;;;;;10.50;9.25;;;;;15.79;77.47;101666.56;5060587;28;45416;-92
2022/09/11 01:03:30;;;;;;;;;12.50;10.50;;;;;15.75;78.19;101670.16;5060858;28;46110;-93
2022/09/11 01:05:56;;;;;;;;;13.00;10.50;;;;;15.71;77.64;101663.28;5078717;28;45602;-93
2022/09/11 01:08:22;;;;;;;;;12.00;9.75;;;;;15.67;77.44;101662.53;5059644;28;66052;-92
2022/09/11 01:11:11;;;;;;;;;11.75;10.50;;;;;15.64;78.01;101658.28;5043633;28;52161;-92
2022/09/11 01:14:06;;;;;;;;;12.50;11.50;;;;;15.63;78.45;101660.94;5078805;28;45241;-92
2022/09/11 01:16:42;;;;;;;;;11.50;10.25;;;;;15.63;78.05;101660.94;5044114;28;45375;-93
2022/09/11 01:19:36;;;;;;;;;10.50;8.25;;;;;15.63;78.17;101653.91;5043865;28;47013;-92
2022/09/11 01:22:19;;;;;;;;;11.00;11.00;;;;;15.63;78.31;101661.78;5060508;28;45361;-91
2022/09/11 01:25:06;;;;;;;;;14.50;11.00;;;;;15.62;78.25;101652.22;5043635;28;45390;-90
2022/09/11 01:27:42;;;;;;;;;12.50;11.75;;;;;15.63;78.46;101648.66;5077155;28;45309;-89
2022/09/11 01:30:12;;;;;;;;;12.00;10.00;;;;;15.66;78.22;101645.94;5059304;28;46375;-87
2022/09/11 01:32:58;;;;;;;;;11.50;10.00;;;;;15.68;78.12;101643.28;5060040;28;45712;-91
2022/09/11 01:35:40;;;;;;;;;13.25;11.50;;;;;15.66;78.13;101643.31;5078037;28;45286;-92
2022/09/11 01:38:17;;;;;;;;;10.50;10.00;;;;;15.64;78.06;101654.81;5060217;28;45304;-91
2022/09/11 01:40:51;;;;;;;;;13.50;11.50;;;;;15.61;77.90;101652.28;5060015;28;46671;-92
2022/09/11 01:43:29;;;;;;;;;8.75;8.75;;;;;15.58;78.07;101653.25;5060486;28;45625;-92
2022/09/11 01:45:57;;;;;;;;;10.00;9.50;;;;;15.56;77.65;101647.16;5060523;28;45365;-93
2022/09/11 01:48:31;;;;;;;;;13.75;12.00;;;;;15.55;77.75;101648.09;5060199;28;45604;-92
2022/09/11 01:50:58;;;;;;;;;17.50;13.00;;;;;15.51;77.81;101649.13;5059669;28;47237;-92
2022/09/11 01:53:28;;;;;;;;;9.75;9.25;;;;;15.48;77.32;101647.44;5060181;28;45443;-92
2022/09/11 01:56:01;;;;;;;;;11.50;10.25;;;;;15.48;77.95;101655.31;5060382;28;45577;-92
2022/09/11 01:58:28;;;;;;;;;9.00;9.00;;;;;15.47;77.78;101642.25;5060562;28;45358;-92
2022/09/11 02:01:00;;;;;;;;;12.75;10.75;;;;;15.47;77.81;101650.13;5042981;28;47061;-92
2022/09/11 02:03:32;;;;;;;;;11.25;9.75;;;;;15.45;77.71;101646.69;5059387;28;45296;-93
2022/09/11 02:06:12;;;;;;;;;17.25;12.00;;;;;15.40;77.60;101643.41;5059432;28;45457;-91
2022/09/11 02:08:48;;;;;;;;;10.50;8.25;;;;;15.35;77.34;101646.16;5060053;28;45470;-91
2022/09/11 02:11:15;;;;;;;;;13.25;12.00;;;;;15.33;78.03;101642.75;5059106;28;45494;-91
2022/09/11 02:14:12;;;;;;;;;11.00;10.00;;;;;15.33;78.06;101645.38;5059735;28;45718;-92
2022/09/11 02:16:50;;;;;;;;;10.00;10.00;;;;;15.34;78.27;101636.59;5059877;28;45400;-92
2022/09/11 02:19:23;;;;;;;;;14.50;10.25;;;;;15.34;77.60;101638.34;5059466;28;45301;-92
2022/09/11 02:21:49;;;;;;;;;12.25;11.25;;;;;15.31;77.66;101638.47;5059571;28;46441;-93
2022/09/11 02:24:15;;;;;;;;;10.00;10.00;;;;;15.27;77.68;101642.97;5059641;28;45338;-92
2022/09/11 02:26:45;;;;;;;;;13.25;10.25;;;;;15.26;77.99;101638.59;5059721;28;45324;-93
2022/09/11 02:29:12;;;;;;;;;15.00;11.75;;;;;15.23;77.82;101636.97;5059646;28;45255;-93
2022/09/11 02:31:38;;;;;;;;;9.00;9.00;;;;;15.23;77.58;101639.59;5059570;28;45497;-92
2022/09/11 02:34:03;;;;;;;;;12.75;10.50;;;;;15.21;77.77;101646.66;5042015;28;52140;-92
2022/09/11 02:37:02;;;;;;;;;16.25;11.50;;;;;15.19;77.33;101642.34;5059231;28;45417;-92
2022/09/11 02:39:30;;;;;;;;;11.75;10.00;;;;;15.15;77.39;101653.84;5077873;28;45293;-92
2022/09/11 02:42:23;;;;;;;;;14.50;10.00;;;;;15.12;77.96;101646.97;5077398;28;45501;-92
2022/09/11 02:45:31;;;;;;;;;14.50;8.25;;;;;15.16;77.93;101645.94;5059071;28;45684;-91
2022/09/11 02:48:32;;;;;;;;;9.50;9.00;;;;;15.16;77.94;101638.06;5059282;28;45371;-92
2022/09/11 02:51:19;;;;;;;;;11.50;10.75;;;;;15.13;77.41;101648.66;5042228;28;45579;-91
2022/09/11 02:54:17;;;;;;;;;9.00;9.00;;;;;15.11;77.48;101647.84;5059040;28;48449;-91
2022/09/11 02:56:55;;;;;;;;;13.50;10.50;;;;;15.07;77.85;101648.88;5059114;28;45390;-93
2022/09/11 02:59:25;;;;;;;;;9.25;9.25;;;;;15.03;77.52;101647.25;5059592;28;45333;-92
2022/09/11 03:01:53;;;;;;;;;10.75;9.75;;;;;15.00;77.52;101642.97;5059032;28;45385;-92
2022/09/11 03:04:21;;;;;;;;;9.75;9.00;;;;;14.97;77.24;101648.31;5059116;28;47390;-92
2022/09/11 03:06:47;;;;;;;;;11.50;10.00;;;;;14.95;77.38;101651.88;5058754;28;45377;-92
2022/09/11 03:09:13;;;;;;;;;11.75;10.00;;;;;14.92;77.78;101646.75;5076844;28;45340;-91
2022/09/11 03:11:39;;;;;;;;;9.00;9.00;;;;;14.92;77.96;101647.59;5042283;28;45556;-91
2022/09/11 03:14:04;;;;;;;;;11.00;8.75;;;;;14.95;77.70;101644.91;5058488;28;45470;-91
2022/09/11 03:16:29;;;;;;;;;16.25;12.00;;;;;14.91;77.49;101640.63;5060856;28;45745;-92
2022/09/11 03:18:55;;;;;;;;;14.25;9.00;;;;;14.85;77.76;101641.69;5045618;28;45306;-92
2022/09/11 03:21:20;;;;;;;;;12.50;11.00;;;;;14.84;78.15;101639.13;5062460;28;45548;-93
2022/09/11 03:23:46;;;;;;;;;9.25;9.25;;;;;14.89;78.40;101639.84;5062394;28;48304;-92
2022/09/11 03:26:11;;;;;;;;;8.50;6.75;;;;;14.91;78.03;101643.25;5062366;28;45294;-92
2022/09/11 03:28:38;;;;;;;;;9.75;8.50;;;;;14.90;77.87;101636.31;5062429;28;45367;-93
2022/09/11 03:31:05;;;;;;;;;8.25;6.50;;;;;14.88;77.88;101636.38;5062689;28;45372;-92
2022/09/11 03:33:30;;;;;;;;;11.00;8.00;;;;;14.84;77.77;101637.38;5058764;28;45697;-92
2022/09/11 03:35:56;;;;;;;;;8.50;7.00;;;;;14.81;77.16;101645.31;5045425;28;45369;-93
2022/09/11 03:38:21;;;;;;;;;10.50;9.00;;;;;14.76;77.29;101642.00;5080391;28;45284;-92
2022/09/11 03:40:47;;;;;;;;;13.50;9.25;;;;;14.73;77.81;101639.50;5062566;28;45464;-92
2022/09/11 03:43:13;;;;;;;;;8.75;8.50;;;;;14.69;77.89;101638.72;5079622;28;63529;-92
2022/09/11 03:45:38;;;;;;;;;11.50;10.75;;;;;14.71;78.47;101639.53;5062314;28;45336;-89
2022/09/11 03:48:05;;;;;;;;;11.25;9.75;;;;;14.75;78.87;101642.91;5061467;28;45430;-92
2022/09/11 03:50:30;;;;;;;;;17.25;12.00;;;;;14.81;78.82;101640.09;5079860;28;45437;-92
2022/09/11 03:52:57;;;;;;;;;17.25;11.25;;;;;14.86;78.67;101637.34;5061837;28;48044;-92
2022/09/11 03:55:22;;;;;;;;;25.00;16.00;;;;;14.90;78.86;101641.56;5061527;28;45904;-91
2022/09/11 03:57:48;;;;;;;;;22.00;16.00;;;;;14.91;78.88;101643.25;5045195;28;45396;-91
2022/09/11 04:00:14;;;;;;;;;24.00;16.00;;;;;14.90;79.36;101644.19;5078638;28;45424;-91
2022/09/11 04:02:40;;;;;;;;;22.25;15.25;;;;;14.89;79.27;101648.56;5078916;28;45407;-91
2022/09/11 04:05:07;;;;;;;;;18.00;13.00;;;;;14.87;78.94;101642.50;5079620;28;45789;-91
2022/09/11 04:07:33;;;;;;;;;14.75;11.25;;;;;14.90;78.88;101636.31;5079345;28;45286;-90
2022/09/11 04:09:59;;;;;;;;;10.50;10.50;;;;;14.97;79.06;101635.22;5061927;28;45524;-94
2022/09/11 04:12:24;;;;;;;;;12.25;11.00;;;;;15.02;78.73;101630.66;5044056;28;48313;-89
2022/09/11 04:14:50;;;;;;;;;15.50;11.50;;;;;15.07;78.94;101636.59;5061550;28;45395;-90
2022/09/11 04:17:16;;;;;;;;;17.75;12.75;;;;;15.15;78.91;101632.88;5078912;28;45407;-89
2022/09/11 04:19:41;;;;;;;;;11.50;10.50;;;;;15.20;78.75;101647.53;5060716;28;45428;-90
2022/09/11 04:22:07;;;;;;;;;17.75;11.25;;;;;15.23;78.90;101644.81;5061009;28;46788;-90
2022/09/11 04:24:33;;;;;;;;;14.75;12.00;;;;;15.29;78.86;101641.13;5061666;28;45404;-92
2022/09/11 04:27:02;;;;;;;;;12.00;10.50;;;;;15.29;78.67;101636.75;5061038;28;45372;-92
2022/09/11 04:29:27;;;;;;;;;16.00;10.00;;;;;15.33;78.91;101644.50;5061920;28;45309;-93
2022/09/11 04:31:53;;;;;;;;;10.25;10.00;;;;;15.31;78.36;101638.47;5061421;28;46412;-92
2022/09/11 04:34:18;;;;;;;;;14.75;11.00;;;;;15.26;78.81;101649.94;5061453;28;45364;-92
2022/09/11 04:36:44;;;;;;;;;15.75;10.75;;;;;15.18;79.67;101644.13;5053931;28;45279;-93
2022/09/11 04:39:10;;;;;;;;;18.25;11.50;;;;;15.12;80.14;101648.69;5061258;28;45504;-93
2022/09/11 04:41:35;;;;;;;;;19.50;12.00;;;;;15.07;79.70;101647.09;5079025;28;48503;-92
2022/09/11 04:44:01;;;;;;;;;14.00;9.75;;;;;15.06;79.75;101658.50;5060736;28;45396;-91
2022/09/11 04:46:26;;;;;;;;;17.50;10.50;;;;;15.05;80.14;101654.16;5044609;28;45491;-92
2022/09/11 04:48:54;;;;;;;;;13.50;11.00;;;;;15.08;79.46;101653.19;5061077;28;45437;-93
2022/09/11 04:51:46;;;;;;;;;12.75;10.75;;;;;15.17;79.63;101660.75;5060928;28;45943;-93
2022/09/11 04:54:17;;;;;;;;;20.50;12.75;;;;;15.17;80.00;101650.25;5058829;28;45282;-92
2022/09/11 04:56:42;;;;;;;;;12.50;9.75;;;;;15.15;79.25;101656.47;5061254;28;45366;-93
2022/09/11 04:59:12;;;;;;;;;24.50;12.50;;;;;15.13;79.47;101663.53;5060771;28;45239;-91
2022/09/11 05:01:38;;;;;;;;;32.50;12.25;;;;;15.05;80.27;101667.25;5078640;28;46437;-93
2022/09/11 05:04:04;;;;;;;;;26.75;13.50;;;;;14.98;79.39;101670.16;5060985;28;45478;-93
2022/09/11 05:06:30;;;;;;;;;17.50;12.75;;;;;14.98;79.44;101678.00;5060867;28;45469;-93
2022/09/11 05:09:00;;;;;;;;;18.25;11.25;;;;;15.01;79.78;101677.91;5060946;28;45484;-92
2022/09/11 05:11:26;;;;;;;;;13.50;11.00;;;;;15.02;79.51;101682.25;5078674;28;46253;-93
2022/09/11 05:13:51;;;;;;;;;17.25;10.75;;;;;15.05;79.89;101676.91;5076991;28;59410;-92
2022/09/11 05:16:17;;;;;;;;;12.50;10.50;;;;;15.05;79.31;101675.13;5079036;28;45406;-93
2022/09/11 05:18:49;;;;;;;;;14.00;11.50;;;;;15.08;78.86;101680.28;5060634;28;48331;-92
2022/09/11 05:21:15;;;;;;;;;18.00;11.00;;;;;15.10;79.70;101683.72;5060620;28;45629;-92
2022/09/11 05:23:41;;;;;;;;;13.25;10.75;;;;;15.13;78.97;101676.66;5060896;28;45690;-92
2022/09/11 05:26:13;;;;;;;;;18.00;10.75;;;;;15.18;79.25;101674.75;5078798;28;45419;-93
2022/09/11 05:28:38;;;;;;;;;16.25;12.00;;;;;15.21;78.92;101679.88;5060221;28;45293;-93
2022/09/11 05:31:15;;;;;;;;;12.75;10.50;;;;;15.19;78.66;101685.19;5060172;28;51193;-91
2022/09/11 05:33:44;;;;;;;;;28.50;15.75;;;;;15.13;78.94;101681.91;5077279;28;45874;-92
2022/09/11 05:36:11;;;;;;;;;21.75;11.00;;;;;15.03;79.09;101684.81;5073349;27;45425;-93
2022/09/11 05:38:39;;;;;;;;;15.50;11.50;;;;;14.94;80.00;101690.34;5082164;27;45364;-92
2022/09/11 05:41:07;;;;;;;;;14.00;10.00;;;;;14.88;80.07;101693.19;5081477;27;45482;-92
2022/09/11 05:43:33;;;;;;;;;34.00;18.50;;;;;14.78;79.77;101692.59;5098380;27;45313;-92
2022/09/11 05:45:58;;;;;;;;;16.75;10.75;;;;;14.81;79.88;101694.28;5097794;27;45520;-92
2022/09/11 05:48:27;;;;;;;;;18.25;10.00;;;;;14.83;79.51;101703.78;5080529;27;45538;-92
2022/09/11 05:50:54;;;;;;;;;24.50;12.75;;;;;14.84;80.76;101700.28;5098386;27;47338;-92
2022/09/11 05:53:20;;;;;;;;;10.00;8.00;;;;;14.83;79.88;101700.31;5097141;27;46126;-92
2022/09/11 05:55:46;;;;;;;;;10.00;7.50;;;;;14.92;79.48;101701.81;5080702;27;45414;-92
2022/09/11 05:58:12;;;;;;;;;16.50;11.50;;;;;15.01;79.68;101707.59;5079878;27;45315;-92
2022/09/11 06:00:37;;;;;;;;;16.25;11.25;;;;;15.08;79.46;101708.25;5080234;27;47190;-94
2022/09/11 06:03:03;;;;;;;;;13.50;9.25;;;;;15.14;79.40;101708.06;5097280;27;46058;-93
2022/09/11 06:05:29;;;;;;;;;18.00;10.50;;;;;15.19;79.17;101715.78;5097484;27;45430;-93
2022/09/11 06:07:54;;;;;;;;;20.25;14.00;;;;;15.18;79.18;101714.94;5080009;27;48179;-92
2022/09/11 06:10:20;;;;;;;;;14.50;9.75;;;;;15.12;79.51;101712.50;5096805;27;49678;-92
2022/09/11 06:12:45;;;;;;;;;16.25;10.00;;;;;15.06;80.03;101710.94;5097610;27;45477;-94
2022/09/11 06:15:10;;;;;;;;;11.75;10.00;;;;;14.99;80.25;101719.03;5080899;27;45305;-92
2022/09/11 06:17:36;;;;;;;;;22.25;14.25;;;;;14.93;81.24;101716.63;5097221;27;54013;-92
2022/09/11 06:20:02;;;;;;;;;17.50;10.50;;;;;14.89;80.14;101723.72;5097070;27;45421;-93
2022/09/11 06:22:30;;;;;;;;;17.25;10.00;;;;;14.92;80.16;101709.66;5080015;27;45432;-92
2022/09/11 06:24:56;;;;;;;;;14.50;11.00;;;;;14.99;80.36;101716.41;5081691;27;45466;-91
2022/09/11 06:27:22;;;;;;;;;9.00;8.75;;;;;15.07;79.45;101722.28;5098474;27;45364;-91
2022/09/11 06:29:48;;;;;;;;;10.75;10.00;;;;;15.13;79.07;101715.97;5097010;27;46907;-94
2022/09/11 06:32:13;;;;;;;;;10.50;10.00;;;;;15.20;79.12;101720.13;5076476;27;45332;-93
2022/09/11 06:34:39;;;;;;;;;18.25;10.00;;;;;15.28;79.60;101720.72;5059543;28;45360;-90
2022/09/11 06:37:04;;;;;;;;;12.50;11.25;;;;;15.33;79.61;101723.22;5054360;28;45500;-87
2022/09/11 06:39:30;;;;;;;;;13.00;11.25;;;;;15.35;79.92;101724.84;5058365;28;46289;-88
2022/09/11 06:41:55;;;;;;;;;15.00;9.25;;;;;15.32;79.42;101724.94;5057875;28;45389;-87
2022/09/11 06:44:21;;;;;;;;;17.25;11.50;;;;;15.30;79.28;101721.53;5057878;28;53655;-88
2022/09/11 06:46:46;;;;;;;;;19.25;10.75;;;;;15.26;80.13;101723.38;5058704;28;45328;-89
2022/09/11 06:49:12;;;;;;;;;22.00;13.00;;;;;15.16;79.63;101724.63;5057702;27;50514;-87
2022/09/11 06:51:38;;;;;;;;;17.75;12.00;;;;;15.10;80.33;101727.44;5057717;28;49828;-88
2022/09/11 06:54:04;;;;;;;;;21.50;13.00;;;;;15.05;79.91;101726.72;5075348;28;45311;-87
2022/09/11 06:56:31;;;;;;;;;11.25;9.75;;;;;15.09;79.80;101723.09;5076092;28;45277;-89
2022/09/11 06:58:57;;;;;;;;;20.50;14.75;;;;;15.19;81.28;101726.25;5058565;28;45588;-91
2022/09/11 07:01:22;;;;;;;;;18.00;11.50;;;;;15.21;80.62;101724.44;5041865;28;46201;-91
2022/09/11 07:03:50;;;;;;;;;25.25;14.00;;;;;15.17;81.08;101723.69;5076379;28;45437;-90
2022/09/11 07:06:17;;;;;;;;;17.75;11.25;;;;;15.20;80.26;101730.63;5058564;28;45467;-90
2022/09/11 07:08:43;;;;;;;;;18.50;11.00;;;;;15.29;80.17;101723.31;5075736;28;45571;-90
2022/09/11 07:11:12;;;;;;;;;11.75;10.50;;;;;15.40;79.63;101727.34;5041297;28;60118;-89
2022/09/11 07:13:38;;;;;;;;;16.75;12.00;;;;;15.51;80.07;101733.09;5059115;28;45423;-91
2022/09/11 07:16:09;;;;;;;;;13.75;12.00;;;;;15.59;79.27;101717.94;5074920;28;45474;-89
2022/09/11 07:18:39;;;;;;;;;13.25;11.75;;;;;15.71;79.13;101719.25;5058051;28;45526;-84
2022/09/11 07:21:06;;;;;;;;;17.75;12.75;;;;;15.80;78.99;101724.22;5038354;28;45886;-91
2022/09/11 07:23:33;;;;;;;;;15.75;11.25;;;;;15.91;78.96;101730.88;5074972;27;45572;-89
2022/09/11 07:26:02;;;;;;;;;17.75;12.50;;;;;15.99;78.57;101727.06;5075252;28;45286;-87
2022/09/11 07:28:28;;;;;;;;;12.25;11.00;;;;;16.05;78.33;101728.63;5076722;28;47033;-90
2022/09/11 07:30:53;;;;;;;;;17.25;11.00;;;;;16.12;78.36;101724.88;5076535;28;45366;-89
2022/09/11 07:33:18;;;;;;;;;11.25;11.25;;;;;16.23;77.83;101727.06;5041748;28;54972;-89
2022/09/11 07:35:44;;;;;;;;;17.50;12.00;;;;;16.30;78.09;101725.09;5058701;28;45479;-89
2022/09/11 07:38:09;;;;;;;;;17.50;14.00;;;;;16.37;77.69;101727.44;5057842;28;46387;-89
2022/09/11 07:40:34;;;;;;;;;13.75;12.75;;;;;16.43;77.30;101734.22;5057624;28;65151;-89
2022/09/11 07:43:00;;;;;;;;;14.50;11.75;;;;;16.45;77.06;101732.38;5058676;28;45370;-89
2022/09/11 07:45:26;;;;;;;;;19.50;14.25;;;;;16.46;77.30;101726.22;5076208;28;45297;-90
2022/09/11 07:47:52;;;;;;;;;15.00;14.00;;;;;16.50;76.78;101726.97;5076208;28;46314;-91
2022/09/11 07:50:17;;;;;;;;;17.75;14.50;;;;;16.55;76.78;101730.28;5076933;28;45261;-90
2022/09/11 07:52:42;;;;;;;;;22.00;15.75;;;;;16.62;77.16;101737.00;5075623;28;55935;-90
2022/09/11 07:55:08;;;;;;;;;19.50;14.50;;;;;16.68;76.72;101731.53;5057941;28;63442;-92
2022/09/11 07:57:33;;;;;;;;;21.25;17.25;;;;;16.77;76.55;101733.81;5075549;28;58018;-91
2022/09/11 07:59:59;;;;;;;;;23.00;16.25;;;;;16.88;76.49;101727.28;5057768;28;71388;-92
2022/09/11 08:02:24;;;;;;;;;18.25;15.00;;;;;16.96;76.26;101727.84;5060105;28;45751;-92
2022/09/11 08:04:50;;;;;;;;;25.00;16.00;;;;;16.95;75.62;101732.22;5060949;28;58546;-92
2022/09/11 08:07:15;;;;;;;;;22.50;16.50;;;;;16.94;76.11;101734.94;5079637;28;45404;-91
2022/09/11 08:09:41;;;;;;;;;21.50;17.00;;;;;16.99;75.70;101725.97;5061486;28;45278;-90
2022/09/11 08:12:06;;;;;;;;;20.25;16.25;;;;;17.01;75.90;101724.13;5062027;28;47657;-90
2022/09/11 08:14:32;;;;;;;;;21.50;18.25;;;;;17.06;75.92;101725.69;5079922;28;45442;-91
2022/09/11 08:16:57;;;;;;;;;21.75;18.00;;;;;17.07;75.04;101730.91;5061713;28;52562;-90
2022/09/11 08:19:22;;;;;;;;;19.00;16.50;;;;;17.07;75.28;101732.66;5061565;28;46569;-90
2022/09/11 08:21:49;;;;;;;;;23.00;19.25;;;;;17.05;75.52;101719.59;5044961;28;45382;-91
2022/09/11 08:24:20;;;;;;;;;23.50;18.25;;;;;17.06;76.15;101720.44;5079535;28;45473;-89
2022/09/11 08:26:45;;;;;;;;;30.25;22.00;;;;;17.08;75.60;101724.72;5079962;28;45664;-93
2022/09/11 08:29:10;;;;;;;;;21.75;19.00;;;;;17.15;76.31;101723.53;5061485;28;45909;-93
2022/09/11 08:31:36;;;;;;;;;25.25;21.25;;;;;17.26;76.15;101723.09;5061518;28;46284;-93
2022/09/11 08:34:02;;;;;;;;;24.00;22.00;;;;;17.34;76.07;101722.78;5061473;28;45410;-91
2022/09/11 08:36:28;;;;;;;;;26.50;22.25;;;;;17.41;75.77;101730.34;5078309;27;46898;-91
2022/09/11 08:38:54;;;;;;;;;29.00;26.25;;;;;17.49;76.15;101726.56;5060350;28;45738;-90
2022/09/11 08:41:22;;;;;;;;;34.00;24.75;;;;;17.59;75.43;101738.41;5043620;28;45563;-91
2022/09/11 08:44:16;;;;;;;;;33.50;28.00;;;;;17.65;75.06;101732.88;5060378;28;45421;-90
2022/09/11 08:46:44;;;;;;;;;30.25;27.25;;;;;17.70;75.04;101737.94;5041037;28;45742;-91
2022/09/11 08:49:23;;;;;;;;;27.75;24.25;;;;;17.70;74.94;101738.81;5060317;28;45492;-91
2022/09/11 08:51:50;;;;;;;;;33.25;28.25;;;;;17.68;75.26;101732.75;5078478;28;45382;-91
2022/09/11 08:54:30;;;;;;;;;31.25;28.25;;;;;17.71;74.90;101742.28;5061657;28;45432;-91
2022/09/11 08:57:30;;;;;;;;;34.50;28.00;;;;;17.70;74.68;101740.56;5060754;28;46349;-91
2022/09/11 09:00:20;;;;;;;;;34.75;27.50;;;;;17.65;74.95;101745.19;5079074;27;45911;-91
2022/09/11 09:03:07;;;;;;;;;33.50;27.50;;;;;17.66;75.04;101734.56;5079186;28;45444;-91
2022/09/11 09:06:12;;;;;;;;;33.50;32.50;;;;;17.68;75.20;101739.78;5078389;27;45502;-91
2022/09/11 09:08:48;;;;;;;;;39.75;30.50;;;;;17.72;75.11;101742.22;5060629;28;47805;-91
2022/09/11 09:11:28;;;;;;;;;41.50;33.75;;;;;17.74;75.35;101736.91;5078857;28;45412;-91
2022/09/11 09:14:15;;;;;;;;;39.75;33.75;;;;;17.76;75.44;101741.16;5060575;28;46191;-91
2022/09/11 09:16:52;;;;;;;;;44.00;35.00;;;;;17.77;75.93;101737.63;5078506;28;45278;-90
2022/09/11 09:19:24;;;;;;;;;42.75;34.25;;;;;17.84;75.46;101738.19;5060683;28;46716;-91
2022/09/11 09:22:08;;;;;;;;;41.75;34.50;;;;;17.85;75.79;101731.19;5077491;28;45795;-91
2022/09/11 09:24:42;;;;;;;;;46.00;34.00;;;;;17.84;75.74;101734.72;5060698;28;45506;-92
2022/09/11 09:27:15;;;;;;;;;43.50;35.00;;;;;17.85;75.88;101734.69;5060874;28;45312;-94
2022/09/11 09:29:44;;;;;;;;;42.00;35.00;;;;;17.91;76.22;101744.09;5079980;28;47524;-90
2022/09/11 09:32:14;;;;;;;;;49.00;38.00;;;;;17.97;76.39;101736.78;5061285;28;45349;-93
2022/09/11 09:34:41;;;;;;;;;46.25;36.75;;;;;18.02;75.82;101751.53;5061489;28;45329;-87
2022/09/11 09:37:20;;;;;;;;;41.50;35.25;;;;;18.10;75.98;101747.63;5040749;28;45361;-88
2022/09/11 09:39:46;;;;;;;;;36.75;32.25;;;;;18.16;75.85;101743.84;5057859;28;46230;-91
2022/09/11 09:42:33;;;;;;;;;47.50;38.00;;;;;18.25;75.48;101738.16;5039760;28;45496;-92
2022/09/11 09:45:18;;;;;;;;;41.50;36.50;;;;;18.30;75.51;101736.19;5076155;28;45347;-88
2022/09/11 09:47:44;;;;;;;;;42.25;35.00;;;;;18.36;75.19;101735.06;5076680;28;45459;-87
2022/09/11 09:50:21;;;;;;;;;42.75;35.25;;;;;18.41;75.64;101730.44;5058427;28;47877;-89
2022/09/11 09:52:48;;;;;;;;;47.25;36.75;;;;;18.46;76.12;101724.94;5088188;27;45864;-95
2022/09/11 09:55:16;;;;;;;;;46.75;35.75;;;;;18.52;75.08;101719.41;5079672;27;45388;-90
2022/09/11 09:57:42;;;;;;;;;47.00;35.25;;;;;18.61;75.47;101721.59;5080924;27;45487;-92
2022/09/11 10:00:08;;;;;;;;;40.25;34.00;;;;;18.76;75.59;101731.41;5080799;27;47155;-94
2022/09/11 10:02:44;;;;;;;;;39.50;35.00;;;;;18.90;74.97;101725.50;5099692;27;45410;-96
2022/09/11 10:05:31;;;;;;;;;40.25;34.00;;;;;18.99;74.97;101720.72;5102785;27;45353;-96
2022/09/11 10:08:02;;;;;;;;;34.50;30.50;;;;;19.12;73.94;101720.03;5079616;28;45297;-86
2022/09/11 10:10:39;;;;;;;;;37.00;34.25;;;;;19.29;73.52;101711.28;5102887;27;45629;-94
2022/09/11 10:13:28;;;;;;;;;32.25;26.50;;;;;19.50;72.64;101719.91;5063181;28;45450;-92
2022/09/11 10:15:58;;;;;;;;;31.25;27.75;;;;;19.70;72.41;101721.50;5059844;28;45314;-95
2022/09/11 10:18:36;;;;;;;;;34.25;24.50;;;;;19.94;70.60;101720.34;5044599;28;45441;-92
2022/09/11 10:21:10;;;;;;;;;36.00;27.75;;;;;20.20;71.20;101721.59;5078064;28;45591;-96
2022/09/11 10:23:55;;;;;;;;;28.50;25.00;;;;;20.40;71.07;101713.44;5077248;28;45475;-93
2022/09/11 10:26:30;;;;;;;;;22.00;19.00;;;;;20.56;69.71;101715.22;5059976;28;45300;-94
2022/09/11 10:29:03;;;;;;;;;14.75;13.00;;;;;20.61;66.19;101708.78;5059778;28;45334;-95
2022/09/11 10:31:29;;;;;;;;;17.50;12.75;;;;;20.64;68.01;101713.06;5060586;28;45424;-94
2022/09/11 10:33:57;;;;;;;;;15.75;12.75;;;;;20.66;69.21;101709.38;5057460;28;45563;-94
2022/09/11 10:36:27;;;;;;;;;11.75;9.25;;;;;20.76;66.81;101703.56;5059160;28;45431;-92
2022/09/11 10:38:54;;;;;;;;;12.25;10.50;;;;;20.86;66.48;101707.41;5059269;28;45426;-95
2022/09/11 10:41:23;;;;;;;;;12.50;9.00;;;;;21.04;67.93;101694.91;5069770;27;45522;-92
2022/09/11 10:43:55;;;;;;;;;11.75;9.25;;;;;21.17;67.22;101701.22;5079199;27;45493;-90
2022/09/11 10:46:32;;;;;;;;;4.75;4.25;;;;;21.13;64.06;101699.66;5091470;27;45404;-91
2022/09/11 10:48:58;;;;;;;;;9.25;8.25;;;;;21.17;65.63;101700.34;5061120;28;45595;-94
2022/09/11 10:51:30;;;;;;;;;8.25;7.50;;;;;21.24;65.71;101691.09;5060611;28;46409;-95
2022/09/11 10:54:22;;;;;;;;;11.00;9.25;;;;;21.27;65.01;101689.13;5071315;28;45561;-96
2022/09/11 10:56:59;;;;;;;;;8.75;8.75;;;;;21.42;64.46;101687.38;5060018;28;45485;-92
2022/09/11 10:59:39;;;;;;;;;9.50;7.00;;;;;21.64;64.13;101672.88;5077265;28;45241;-95
2022/09/11 11:02:18;;;;;;;;;15.00;12.00;;;;;21.89;64.93;101684.59;5060430;28;45918;-96
2022/09/11 11:04:44;;;;;;;;;9.50;9.50;;;;;21.97;61.94;101669.06;5077786;28;45856;-95
2022/09/11 11:07:27;;;;;;;;;9.25;8.00;;;;;22.06;63.54;101671.13;5042648;28;45387;-96
2022/09/11 11:10:02;;;;;;;;;10.75;10.50;;;;;22.16;62.50;101676.75;5059088;28;45416;-92
2022/09/11 11:12:45;;;;;;;;;10.00;9.50;;;;;22.38;62.39;101669.16;5059487;28;47361;-95
2022/09/11 11:15:37;;;;;;;;;11.00;9.25;;;;;22.69;61.46;101661.00;5064404;28;45597;-94
2022/09/11 11:18:20;;;;;;;;;12.00;9.50;;;;;22.80;61.07;101661.97;5078001;28;45349;-94
2022/09/11 11:20:51;;;;;;;;;10.50;9.25;;;;;22.90;60.58;101667.56;5061989;28;45350;-95
2022/09/11 11:23:36;;;;;;;;;11.00;9.00;;;;;23.14;60.74;101664.22;5067978;28;48527;-96
2022/09/11 11:26:12;;;;;;;;;12.00;11.00;;;;;23.50;60.66;101665.34;5086503;27;45353;-96
2022/09/11 11:28:47;;;;;;;;;10.25;10.00;;;;;23.84;59.95;101661.19;5081389;27;45408;-96